Time;durP1;ratioP1;P1;durP2;ratioP2;P2;SDS_P1;SDS_P2;PMS_P1;PMS_P2;Temp;Humidity;BMP_temperature;BMP_pressure;BME280_temperature;BME280_humidity;BME280_pressure;Samples;Min_cycle;Max_cycle;Signal;HPM_P1;HPM_P2
2021/04/06 00:00:50;;;;;;;7.75;2.80;;;-1.40;99.90;;;;;;491054;242;29178;-71
2021/04/06 00:02:52;;;;;;;8.50;3.37;;;-1.40;99.90;;;;;;491063;242;27497;-72
2021/04/06 00:04:53;;;;;;;7.50;2.70;;;-1.40;99.90;;;;;;491038;242;27581;-72
2021/04/06 00:06:54;;;;;;;8.25;3.08;;;-1.50;99.90;;;;;;491055;242;27487;-72
2021/04/06 00:08:55;;;;;;;4.80;2.30;;;-1.50;99.90;;;;;;491029;242;27512;-72
2021/04/06 00:10:57;;;;;;;5.05;2.65;;;-1.50;99.90;;;;;;491101;242;27829;-72
2021/04/06 00:12:58;;;;;;;4.03;2.78;;;-1.50;99.90;;;;;;491125;242;27543;-72
2021/04/06 00:14:59;;;;;;;8.82;2.55;;;-1.50;99.90;;;;;;490985;242;27500;-72
2021/04/06 00:17:00;;;;;;;8.00;2.85;;;-1.50;99.90;;;;;;491041;242;28014;-72
2021/04/06 00:19:02;;;;;;;11.07;3.40;;;-1.50;99.90;;;;;;490991;242;29049;-73
2021/04/06 00:21:03;;;;;;;7.43;2.42;;;-1.50;99.90;;;;;;491063;242;27483;-73
2021/04/06 00:23:04;;;;;;;6.40;2.90;;;-1.50;99.90;;;;;;490998;242;27506;-72
2021/04/06 00:25:05;;;;;;;9.00;2.40;;;-1.50;99.90;;;;;;491044;242;27494;-72
2021/04/06 00:27:07;;;;;;;6.65;2.50;;;-1.40;99.90;;;;;;491040;240;27574;-72
2021/04/06 00:29:08;;;;;;;3.72;2.55;;;-1.50;99.90;;;;;;491008;242;27588;-72
2021/04/06 00:31:09;;;;;;;4.47;2.58;;;-1.50;99.90;;;;;;491042;242;27490;-72
2021/04/06 00:33:10;;;;;;;4.85;2.28;;;-1.50;99.90;;;;;;491140;242;27574;-72
2021/04/06 00:35:12;;;;;;;9.60;2.80;;;-1.50;99.90;;;;;;491169;242;28120;-72
2021/04/06 00:37:13;;;;;;;6.72;2.55;;;-1.50;99.90;;;;;;491189;242;27818;-72
2021/04/06 00:39:14;;;;;;;7.50;2.40;;;-1.50;99.90;;;;;;491166;242;27807;-71
2021/04/06 00:41:15;;;;;;;5.05;2.80;;;-1.50;99.90;;;;;;491054;242;27560;-72
2021/04/06 00:43:17;;;;;;;9.25;3.10;;;-1.50;99.90;;;;;;491039;242;27495;-72
2021/04/06 00:45:18;;;;;;;4.93;2.70;;;-1.60;99.90;;;;;;491054;242;27497;-73
2021/04/06 00:47:19;;;;;;;15.95;3.55;;;-1.60;99.90;;;;;;491027;242;27466;-72
2021/04/06 00:49:20;;;;;;;4.68;3.72;;;-1.60;99.90;;;;;;491049;241;27859;-72
2021/04/06 00:51:22;;;;;;;6.47;2.72;;;-1.50;99.90;;;;;;491059;242;27487;-72
2021/04/06 00:53:23;;;;;;;8.40;3.25;;;-1.60;99.90;;;;;;491062;242;27588;-73
2021/04/06 00:55:24;;;;;;;10.27;3.85;;;-1.60;99.90;;;;;;491023;242;28098;-72
2021/04/06 00:57:25;;;;;;;4.00;2.75;;;-1.60;99.90;;;;;;491036;242;29102;-72
2021/04/06 00:59:27;;;;;;;11.70;2.80;;;-1.60;99.90;;;;;;491146;242;27492;-72
2021/04/06 01:01:28;;;;;;;6.57;2.58;;;-1.60;99.90;;;;;;491120;242;27445;-72
2021/04/06 01:03:29;;;;;;;5.60;2.70;;;-1.50;99.90;;;;;;491126;242;27503;-72
2021/04/06 01:05:30;;;;;;;10.23;3.50;;;-1.50;99.90;;;;;;491141;242;27504;-73
2021/04/06 01:07:32;;;;;;;6.45;2.53;;;-1.60;99.90;;;;;;491202;242;27491;-72
2021/04/06 01:09:33;;;;;;;5.95;3.22;;;-1.60;99.90;;;;;;491206;242;27563;-72
2021/04/06 01:11:34;;;;;;;9.23;3.00;;;-1.60;99.90;;;;;;491222;241;27444;-72
2021/04/06 01:13:35;;;;;;;3.97;2.50;;;-1.60;99.90;;;;;;491245;242;27844;-72
2021/04/06 01:15:37;;;;;;;4.07;2.70;;;-1.60;99.90;;;;;;491205;240;27962;-73
2021/04/06 01:17:38;;;;;;;5.82;2.72;;;-1.70;99.90;;;;;;491213;242;29044;-72
2021/04/06 01:19:40;;;;;;;9.88;3.22;;;-1.70;99.90;;;;;;490826;242;27480;-73
2021/04/06 01:21:41;;;;;;;5.78;3.22;;;-1.60;99.90;;;;;;490269;242;27563;-72
2021/04/06 01:23:42;;;;;;;3.75;2.50;;;-1.60;99.90;;;;;;490754;242;27494;-72
2021/04/06 01:25:43;;;;;;;6.75;3.25;;;-1.60;99.90;;;;;;491218;242;27501;-72
2021/04/06 01:27:44;;;;;;;6.55;3.17;;;-1.60;99.90;;;;;;491168;242;27538;-72
2021/04/06 01:29:46;;;;;;;7.70;2.90;;;-1.70;99.90;;;;;;491162;241;27824;-73
2021/04/06 01:31:47;;;;;;;5.53;2.95;;;-1.70;99.90;;;;;;491099;242;27582;-72
2021/04/06 01:33:48;;;;;;;4.45;2.87;;;-1.70;99.90;;;;;;491066;242;27860;-73
2021/04/06 01:35:51;;;;;;;6.82;3.60;;;-1.70;99.90;;;;;;491074;242;29126;-72
2021/04/06 01:37:51;;;;;;;8.57;3.10;;;-1.70;99.90;;;;;;491001;241;27501;-72
2021/04/06 01:39:53;;;;;;;7.55;3.08;;;-1.70;99.90;;;;;;491096;242;27476;-73
2021/04/06 01:42:01;;;;;;;9.13;3.55;;;-1.70;99.90;;;;;;491029;242;27399;-72
2021/04/06 01:43:57;;;;;;;13.25;2.80;;;-1.80;99.90;;;;;;491091;241;27447;-72
2021/04/06 01:45:58;;;;;;;14.00;3.42;;;-1.80;99.90;;;;;;491378;242;27453;-72
2021/04/06 01:47:59;;;;;;;12.18;3.30;;;-1.80;99.90;;;;;;491396;242;27822;-72
2021/04/06 01:50:01;;;;;;;5.45;3.20;;;-1.80;99.90;;;;;;491388;242;27891;-72
2021/04/06 01:52:02;;;;;;;6.90;2.97;;;-1.80;99.90;;;;;;491386;242;29012;-73
2021/04/06 01:54:03;;;;;;;7.43;3.35;;;-1.80;99.90;;;;;;491371;242;27435;-72
2021/04/06 01:56:13;;;;;;;8.98;3.30;;;-1.80;99.90;;;;;;491068;242;27396;-72
2021/04/06 01:58:09;;;;;;;7.50;3.35;;;-1.70;99.90;;;;;;490774;241;27534;-72
2021/04/06 02:00:20;;;;;;;6.37;3.10;;;-1.70;99.90;;;;;;491069;240;27478;-73
2021/04/06 02:02:11;;;;;;;5.90;3.15;;;-1.70;99.90;;;;;;490442;241;27591;-73
2021/04/06 02:04:12;;;;;;;5.62;2.92;;;-1.80;99.90;;;;;;491059;242;27503;-73
2021/04/06 02:06:13;;;;;;;8.57;3.85;;;-1.70;99.90;;;;;;491131;242;27569;-72
2021/04/06 02:08:18;;;;;;;9.93;3.85;;;-1.70;99.90;;;;;;491167;242;28036;-72
2021/04/06 02:10:16;;;;;;;10.18;3.35;;;-1.70;99.90;;;;;;490957;241;27904;-72
2021/04/06 02:12:17;;;;;;;7.90;3.20;;;-1.70;99.90;;;;;;491193;241;28524;-72
2021/04/06 02:14:18;;;;;;;7.87;3.35;;;-1.70;99.90;;;;;;491139;242;27468;-72
2021/04/06 02:16:20;;;;;;;8.32;3.50;;;-1.80;99.90;;;;;;491179;242;27475;-73
2021/04/06 02:18:21;;;;;;;13.40;3.55;;;-1.80;99.90;;;;;;491248;242;27515;-72
2021/04/06 02:20:22;;;;;;;6.95;3.37;;;-1.70;99.90;;;;;;491223;242;27503;-71
2021/04/06 02:22:23;;;;;;;8.40;3.67;;;-1.70;99.90;;;;;;491151;242;27463;-73
2021/04/06 02:24:25;;;;;;;16.58;3.62;;;-1.60;99.90;;;;;;491121;242;27536;-72
2021/04/06 02:26:26;;;;;;;5.47;3.08;;;-1.60;99.90;;;;;;491109;242;27951;-73
2021/04/06 02:28:27;;;;;;;10.35;3.87;;;-1.50;99.90;;;;;;491110;242;27955;-72
2021/04/06 02:30:31;;;;;;;7.30;3.78;;;-1.50;99.90;;;;;;491050;242;27474;-72
2021/04/06 02:32:33;;;;;;;10.85;3.55;;;-1.50;99.90;;;;;;491088;242;27480;-73
2021/04/06 02:34:34;;;;;;;5.95;3.15;;;-1.40;99.90;;;;;;491106;242;27495;-73
2021/04/06 02:36:35;;;;;;;8.82;3.87;;;-1.50;99.90;;;;;;491106;242;28003;-73
2021/04/06 02:38:36;;;;;;;7.15;3.22;;;-1.50;99.90;;;;;;490993;242;27982;-73
2021/04/06 02:40:38;;;;;;;8.63;3.10;;;-1.50;99.90;;;;;;491061;242;29062;-73
2021/04/06 02:42:39;;;;;;;9.15;3.90;;;-1.60;99.90;;;;;;491053;242;27590;-73
2021/04/06 02:44:40;;;;;;;7.80;3.53;;;-1.50;99.90;;;;;;491076;242;27613;-73
2021/04/06 02:46:48;;;;;;;8.52;3.30;;;-1.50;99.90;;;;;;491113;242;27504;-72
2021/04/06 02:48:43;;;;;;;7.07;3.33;;;-1.60;99.90;;;;;;490681;241;27484;-72
2021/04/06 02:50:44;;;;;;;13.05;3.92;;;-1.50;99.90;;;;;;491059;242;27491;-72
2021/04/06 02:52:45;;;;;;;10.07;3.55;;;-1.50;99.90;;;;;;491080;242;27408;-72
2021/04/06 02:54:46;;;;;;;17.37;4.45;;;-1.50;99.90;;;;;;491174;241;27509;-73
2021/04/06 02:56:48;;;;;;;17.58;3.97;;;-1.50;99.90;;;;;;491169;242;27952;-72
2021/04/06 02:58:49;;;;;;;7.40;3.15;;;-1.50;99.90;;;;;;491155;242;27932;-72
2021/04/06 03:00:50;;;;;;;11.30;3.90;;;-1.60;99.90;;;;;;491195;242;27423;-72
2021/04/06 03:02:51;;;;;;;13.57;3.65;;;-1.60;99.90;;;;;;491193;242;27418;-72
2021/04/06 03:04:53;;;;;;;8.98;3.22;;;-1.60;99.90;;;;;;491186;242;27492;-72
2021/04/06 03:06:54;;;;;;;9.45;3.92;;;-1.70;99.90;;;;;;491189;242;27504;-72
2021/04/06 03:08:55;;;;;;;11.90;4.82;;;-1.70;99.90;;;;;;490842;242;27480;-72
2021/04/06 03:10:56;;;;;;;6.85;3.30;;;-1.70;99.90;;;;;;491035;242;27567;-72
2021/04/06 03:12:58;;;;;;;13.60;5.28;;;-1.70;99.90;;;;;;491036;242;27948;-72
2021/04/06 03:14:59;;;;;;;10.65;3.62;;;-1.60;99.90;;;;;;491069;242;28979;-72
2021/04/06 03:17:00;;;;;;;8.75;3.85;;;-1.60;99.90;;;;;;491097;242;27492;-73
2021/04/06 03:19:02;;;;;;;11.73;4.53;;;-1.50;99.90;;;;;;491091;242;27567;-73
2021/04/06 03:21:03;;;;;;;7.97;3.80;;;-1.40;99.90;;;;;;490380;242;27503;-72
2021/04/06 03:23:04;;;;;;;8.57;3.62;;;-1.40;99.90;;;;;;491071;240;27483;-72
2021/04/06 03:25:05;;;;;;;17.10;4.37;;;-1.40;99.90;;;;;;491106;241;27541;-72
2021/04/06 03:27:07;;;;;;;6.65;3.45;;;-1.40;99.90;;;;;;491159;242;27555;-72
2021/04/06 03:29:08;;;;;;;8.18;3.42;;;-1.40;99.90;;;;;;491174;242;27463;-72
2021/04/06 03:31:09;;;;;;;13.43;3.58;;;-1.50;99.90;;;;;;491160;242;28031;-73
2021/04/06 03:33:10;;;;;;;11.95;4.50;;;-1.50;99.90;;;;;;491250;242;27887;-73
2021/04/06 03:35:12;;;;;;;10.57;3.58;;;-1.50;99.90;;;;;;491242;242;27475;-73
2021/04/06 03:37:13;;;;;;;8.07;3.42;;;-1.50;99.90;;;;;;491244;242;27547;-73
2021/04/06 03:39:14;;;;;;;6.10;3.30;;;-1.60;99.90;;;;;;491256;242;27450;-72
2021/04/06 03:41:15;;;;;;;15.88;4.12;;;-1.60;99.90;;;;;;491223;242;27476;-72
2021/04/06 03:43:17;;;;;;;7.07;3.78;;;-1.70;99.90;;;;;;491220;242;27499;-73
2021/04/06 03:45:18;;;;;;;8.98;3.55;;;-1.70;99.90;;;;;;491214;241;27472;-72
2021/04/06 03:47:19;;;;;;;8.45;3.35;;;-1.70;99.90;;;;;;491154;242;27947;-72
2021/04/06 03:49:24;;;;;;;9.32;3.65;;;-1.70;99.90;;;;;;491067;242;28018;-73
2021/04/06 03:51:22;;;;;;;6.45;4.28;;;-1.70;99.90;;;;;;490813;241;29069;-72
2021/04/06 03:53:25;;;;;;;10.40;3.50;;;-1.70;99.90;;;;;;491078;242;27482;-72
2021/04/06 03:55:24;;;;;;;8.93;3.65;;;-1.70;99.90;;;;;;490971;241;27547;-72
2021/04/06 03:57:33;;;;;;;13.85;4.22;;;-1.70;99.90;;;;;;491038;242;27592;-73
2021/04/06 03:59:28;;;;;;;9.82;4.00;;;-1.70;99.90;;;;;;490646;241;27599;-72
2021/04/06 04:01:28;;;;;;;6.30;3.45;;;-1.80;99.90;;;;;;491019;242;27487;-73
2021/04/06 04:03:29;;;;;;;9.85;4.10;;;-1.80;99.90;;;;;;491074;242;27487;-72
2021/04/06 04:05:30;;;;;;;9.65;3.25;;;-1.80;99.90;;;;;;491057;242;28770;-72
2021/04/06 04:07:32;;;;;;;7.90;3.53;;;-1.90;99.90;;;;;;491036;242;27968;-74
2021/04/06 04:09:33;;;;;;;10.70;3.83;;;-1.90;99.90;;;;;;491046;242;27930;-72
2021/04/06 04:11:34;;;;;;;8.77;3.37;;;-1.90;99.90;;;;;;491049;242;27575;-72
2021/04/06 04:13:35;;;;;;;11.77;3.60;;;-1.90;99.90;;;;;;491031;242;27502;-72
2021/04/06 04:15:37;;;;;;;16.62;4.05;;;-1.90;99.90;;;;;;491061;242;27483;-74
2021/04/06 04:17:39;;;;;;;10.43;3.50;;;-1.90;99.90;;;;;;491073;242;27490;-72
2021/04/06 04:19:39;;;;;;;8.70;3.15;;;-2.00;99.90;;;;;;491321;242;27360;-72
2021/04/06 04:21:40;;;;;;;8.50;3.37;;;-2.00;99.90;;;;;;491385;242;27453;-73
2021/04/06 04:23:42;;;;;;;10.20;3.83;;;-2.00;99.90;;;;;;491365;242;27941;-72
2021/04/06 04:25:43;;;;;;;16.52;3.67;;;-2.00;99.90;;;;;;491357;242;27927;-72
2021/04/06 04:27:44;;;;;;;5.22;2.92;;;-2.00;99.90;;;;;;491235;242;27500;-72
2021/04/06 04:29:45;;;;;;;8.50;3.92;;;-2.00;99.90;;;;;;491040;242;27492;-73
2021/04/06 04:31:49;;;;;;;8.68;4.45;;;-1.90;99.90;;;;;;491060;242;27486;-73
2021/04/06 04:33:48;;;;;;;11.90;3.42;;;-1.90;99.90;;;;;;490973;241;27526;-72
2021/04/06 04:35:49;;;;;;;12.30;3.62;;;-1.90;99.90;;;;;;491061;242;27485;-72
2021/04/06 04:37:50;;;;;;;7.25;3.67;;;-1.90;99.90;;;;;;491057;242;27448;-72
2021/04/06 04:39:52;;;;;;;10.10;4.55;;;-1.90;99.90;;;;;;491017;242;27599;-72
2021/04/06 04:41:53;;;;;;;10.32;4.07;;;-1.90;99.90;;;;;;491061;242;27971;-72
2021/04/06 04:43:54;;;;;;;21.05;4.25;;;-1.90;99.90;;;;;;491060;242;27966;-72
2021/04/06 04:45:55;;;;;;;8.65;4.12;;;-1.80;99.90;;;;;;491067;242;27504;-72
2021/04/06 04:47:57;;;;;;;9.15;3.40;;;-1.80;99.90;;;;;;491113;242;27574;-72
2021/04/06 04:49:58;;;;;;;9.77;4.15;;;-1.80;99.90;;;;;;491150;242;27400;-72
2021/04/06 04:51:59;;;;;;;8.10;3.35;;;-1.80;99.90;;;;;;491197;242;27488;-78
2021/04/06 04:54:00;;;;;;;8.07;4.00;;;-1.80;99.90;;;;;;490996;242;27533;-72
2021/04/06 04:56:02;;;;;;;10.68;4.03;;;-1.80;99.90;;;;;;491058;241;27589;-73
2021/04/06 04:58:03;;;;;;;12.88;4.82;;;-1.70;99.90;;;;;;490195;239;27986;-72
2021/04/06 05:00:04;;;;;;;10.68;3.70;;;-1.70;99.90;;;;;;491081;242;27904;-72
2021/04/06 05:02:06;;;;;;;8.45;3.90;;;-1.60;99.90;;;;;;491075;242;27904;-72
2021/04/06 05:04:07;;;;;;;20.77;4.50;;;-1.70;99.90;;;;;;491085;242;27542;-72
2021/04/06 05:06:08;;;;;;;8.48;4.22;;;-1.70;99.90;;;;;;491082;242;27502;-72
2021/04/06 05:08:09;;;;;;;9.00;3.62;;;-1.60;99.90;;;;;;491099;242;27574;-72
2021/04/06 05:10:11;;;;;;;9.93;3.92;;;-1.60;99.90;;;;;;491089;242;27404;-72
2021/04/06 05:12:12;;;;;;;11.93;3.78;;;-1.60;99.90;;;;;;491052;242;27484;-72
2021/04/06 05:14:13;;;;;;;15.90;4.37;;;-1.60;99.90;;;;;;491126;242;27567;-73
2021/04/06 05:16:14;;;;;;;9.57;3.92;;;-1.60;99.90;;;;;;491080;242;27875;-72
2021/04/06 05:18:16;;;;;;;7.70;3.40;;;-1.50;99.90;;;;;;491076;242;29074;-72
2021/04/06 05:20:17;;;;;;;10.70;3.85;;;-1.50;99.90;;;;;;491032;242;27958;-74
2021/04/06 05:22:18;;;;;;;11.90;3.95;;;-1.50;99.90;;;;;;491041;242;27579;-72
2021/04/06 05:24:19;;;;;;;9.82;4.03;;;-1.50;99.90;;;;;;491075;242;27480;-72
2021/04/06 05:26:21;;;;;;;7.18;4.22;;;-1.50;99.90;;;;;;491046;242;27502;-72
2021/04/06 05:28:22;;;;;;;5.55;3.80;;;-1.50;99.90;;;;;;491044;241;27848;-73
2021/04/06 05:30:23;;;;;;;4.80;3.37;;;-1.60;99.90;;;;;;491093;242;27360;-73
2021/04/06 05:32:24;;;;;;;15.23;4.40;;;-1.60;99.90;;;;;;491086;242;27493;-72
2021/04/06 05:34:26;;;;;;;9.50;4.60;;;-1.60;99.90;;;;;;491129;242;27947;-72
2021/04/06 05:36:27;;;;;;;8.90;3.50;;;-1.60;99.90;;;;;;491077;242;29107;-71
2021/04/06 05:38:28;;;;;;;13.27;4.65;;;-1.50;99.90;;;;;;491121;242;27959;-73
2021/04/06 05:40:29;;;;;;;10.30;4.18;;;-1.50;99.90;;;;;;491049;242;27484;-72
2021/04/06 05:42:31;;;;;;;13.43;4.60;;;-1.50;99.90;;;;;;491206;242;27443;-75
2021/04/06 05:44:32;;;;;;;12.32;4.20;;;-1.50;99.90;;;;;;491254;242;27396;-72
2021/04/06 05:46:33;;;;;;;16.17;4.15;;;-1.40;99.90;;;;;;491262;242;27439;-72
2021/04/06 05:48:34;;;;;;;9.85;4.15;;;-1.40;99.90;;;;;;491268;242;27492;-72
2021/04/06 05:50:36;;;;;;;15.07;5.95;;;-1.40;99.90;;;;;;491246;242;27946;-72
2021/04/06 05:52:37;;;;;;;9.27;3.97;;;-1.30;99.90;;;;;;491244;242;28028;-72
2021/04/06 05:54:38;;;;;;;14.32;4.53;;;-1.20;99.90;;;;;;491204;242;29160;-72
2021/04/06 05:56:39;;;;;;;10.85;3.70;;;-1.20;99.90;;;;;;491146;240;27499;-72
2021/04/06 05:58:41;;;;;;;9.60;3.83;;;-1.20;99.90;;;;;;491105;242;27478;-72
2021/04/06 06:00:42;;;;;;;11.88;4.28;;;-1.20;99.90;;;;;;491098;242;27571;-72
2021/04/06 06:02:43;;;;;;;13.02;4.20;;;-1.10;99.90;;;;;;491183;241;27442;-73
2021/04/06 06:04:44;;;;;;;8.40;4.10;;;-1.10;99.90;;;;;;491109;242;27543;-74
2021/04/06 06:06:46;;;;;;;8.35;4.20;;;-1.10;99.90;;;;;;490994;242;27481;-72
2021/04/06 06:08:50;;;;;;;10.20;4.72;;;-1.10;99.90;;;;;;490864;242;28034;-73
2021/04/06 06:10:48;;;;;;;14.40;4.05;;;-1.00;99.90;;;;;;490829;241;27963;-72
2021/04/06 06:12:49;;;;;;;10.10;4.50;;;-0.80;99.90;;;;;;491030;240;27483;-72
2021/04/06 06:14:54;;;;;;;12.13;4.37;;;-0.70;99.90;;;;;;491088;242;27490;-73
2021/04/06 06:16:55;;;;;;;12.35;4.37;;;-0.70;99.90;;;;;;491088;240;27599;-72
2021/04/06 06:18:56;;;;;;;9.40;4.70;;;-0.80;99.90;;;;;;491110;242;27408;-72
2021/04/06 06:20:57;;;;;;;11.48;4.20;;;-0.70;99.90;;;;;;491160;242;27496;-72
2021/04/06 06:22:59;;;;;;;15.15;4.95;;;-0.60;99.90;;;;;;491250;242;27422;-72
2021/04/06 06:25:00;;;;;;;9.88;4.50;;;-0.50;99.90;;;;;;491202;242;27542;-72
2021/04/06 06:27:01;;;;;;;11.32;4.87;;;-0.40;99.90;;;;;;491199;242;27558;-73
2021/04/06 06:29:02;;;;;;;10.75;4.95;;;-0.30;99.90;;;;;;491217;242;27960;-72
2021/04/06 06:31:04;;;;;;;11.82;4.50;;;-0.40;99.90;;;;;;491164;242;28010;-72
2021/04/06 06:33:05;;;;;;;12.05;4.00;;;-0.30;99.90;;;;;;491111;242;27492;-73
2021/04/06 06:35:06;;;;;;;9.77;4.28;;;-0.20;99.90;;;;;;491081;242;27491;-72
2021/04/06 06:37:07;;;;;;;8.65;4.80;;;-0.20;99.90;;;;;;491114;242;27542;-72
2021/04/06 06:39:09;;;;;;;11.85;4.40;;;-0.20;99.90;;;;;;490669;242;27479;-72
2021/04/06 06:41:10;;;;;;;7.75;4.07;;;-0.20;99.90;;;;;;491054;242;27520;-73
2021/04/06 06:43:11;;;;;;;7.93;4.40;;;-0.30;99.90;;;;;;491046;242;27574;-72
2021/04/06 06:45:12;;;;;;;9.75;4.40;;;-0.30;99.90;;;;;;491112;242;27987;-73
2021/04/06 06:47:14;;;;;;;11.90;5.15;;;-0.20;99.90;;;;;;491101;242;27978;-71
2021/04/06 06:49:15;;;;;;;10.40;4.20;;;-0.40;99.90;;;;;;491057;242;29176;-72
2021/04/06 06:51:16;;;;;;;8.80;4.40;;;-0.30;99.90;;;;;;491199;240;27811;-72
2021/04/06 06:53:17;;;;;;;10.02;5.00;;;-0.30;99.90;;;;;;491200;242;27457;-72
2021/04/06 06:55:19;;;;;;;14.07;4.72;;;-0.30;99.90;;;;;;491217;242;27400;-73
2021/04/06 06:57:20;;;;;;;8.65;4.18;;;-0.20;99.90;;;;;;491175;242;27440;-72
2021/04/06 06:59:21;;;;;;;9.23;4.70;;;-0.20;99.90;;;;;;490733;242;27471;-73
2021/04/06 07:01:22;;;;;;;11.77;5.22;;;-0.10;99.90;;;;;;491139;239;27483;-71
2021/04/06 07:03:24;;;;;;;11.18;4.65;;;0.00;99.90;;;;;;491144;242;27896;-71
2021/04/06 07:05:25;;;;;;;17.60;5.37;;;0.00;99.90;;;;;;491209;242;27930;-72
2021/04/06 07:07:26;;;;;;;8.63;4.53;;;0.20;99.90;;;;;;491240;242;27364;-72
2021/04/06 07:09:27;;;;;;;12.75;4.45;;;0.30;99.90;;;;;;491222;242;27568;-72
2021/04/06 07:11:30;;;;;;;9.32;4.60;;;0.50;99.90;;;;;;491253;242;27503;-72
2021/04/06 07:13:31;;;;;;;8.68;4.97;;;0.50;99.90;;;;;;491193;241;27355;-72
2021/04/06 07:15:31;;;;;;;12.95;4.55;;;0.50;99.90;;;;;;491210;241;27483;-72
2021/04/06 07:17:33;;;;;;;9.68;4.85;;;0.60;99.90;;;;;;491232;242;27593;-72
2021/04/06 07:19:34;;;;;;;8.68;3.67;;;0.70;99.90;;;;;;491195;242;27450;-71
2021/04/06 07:21:35;;;;;;;8.77;3.70;;;0.70;99.90;;;;;;491168;242;27498;-73
2021/04/06 07:23:36;;;;;;;10.32;4.28;;;0.70;99.90;;;;;;491112;242;27553;-72
2021/04/06 07:25:37;;;;;;;7.22;3.60;;;0.90;99.90;;;;;;491109;242;27876;-73
2021/04/06 07:27:39;;;;;;;10.60;4.72;;;1.00;99.90;;;;;;491056;240;28167;-72
2021/04/06 07:29:40;;;;;;;8.93;4.12;;;1.20;99.90;;;;;;491019;242;27971;-71
2021/04/06 07:31:41;;;;;;;9.32;4.20;;;1.20;99.90;;;;;;491024;242;28060;-72
2021/04/06 07:33:44;;;;;;;9.88;4.45;;;1.20;99.90;;;;;;491032;242;27503;-72
2021/04/06 07:35:44;;;;;;;12.93;4.45;;;1.20;99.90;;;;;;490972;241;27484;-72
2021/04/06 07:37:45;;;;;;;11.82;4.45;;;1.20;99.90;;;;;;491041;242;27500;-72
2021/04/06 07:39:48;;;;;;;7.68;3.72;;;1.30;99.90;;;;;;491012;240;27486;-72
2021/04/06 07:41:47;;;;;;;6.70;4.00;;;1.40;99.90;;;;;;490923;241;27606;-72
2021/04/06 07:43:49;;;;;;;8.50;4.20;;;1.50;99.90;;;;;;491031;242;27594;-72
2021/04/06 07:45:50;;;;;;;12.98;4.85;;;1.70;99.90;;;;;;491033;241;27824;-72
2021/04/06 07:47:51;;;;;;;12.75;4.00;;;1.80;99.90;;;;;;491059;242;27404;-72
2021/04/06 07:49:52;;;;;;;14.38;4.10;;;1.70;99.90;;;;;;491040;242;28092;-72
2021/04/06 07:51:54;;;;;;;12.32;3.50;;;1.60;99.90;;;;;;491049;242;27935;-72
2021/04/06 07:53:55;;;;;;;14.75;4.70;;;1.60;99.90;;;;;;491187;242;27965;-73
2021/04/06 07:55:56;;;;;;;17.27;4.15;;;1.60;99.90;;;;;;491161;242;27582;-72
2021/04/06 07:57:57;;;;;;;8.25;4.15;;;1.70;99.90;;;;;;491092;242;27544;-73
2021/04/06 07:59:59;;;;;;;11.65;3.95;;;1.60;99.90;;;;;;491083;242;27566;-72
2021/04/06 08:02:01;;;;;;;10.73;3.78;;;1.70;99.90;;;;;;491058;242;27571;-71
2021/04/06 08:04:01;;;;;;;10.00;3.80;;;1.70;99.90;;;;;;491043;242;27594;-72
2021/04/06 08:06:02;;;;;;;15.57;4.65;;;1.80;99.90;;;;;;491035;242;27895;-72
2021/04/06 08:08:04;;;;;;;9.52;4.05;;;1.90;99.90;;;;;;490953;242;27494;-72
2021/04/06 08:10:05;;;;;;;10.00;4.45;;;1.90;99.90;;;;;;490831;242;27609;-72
2021/04/06 08:12:06;;;;;;;6.85;4.00;;;1.90;99.90;;;;;;490926;242;28011;-72
2021/04/06 08:14:07;;;;;;;11.30;4.07;;;2.00;99.90;;;;;;490856;242;29081;-73
2021/04/06 08:16:09;;;;;;;10.77;4.40;;;2.20;99.90;;;;;;490896;242;28043;-72
2021/04/06 08:18:10;;;;;;;13.30;4.22;;;2.30;99.90;;;;;;490931;242;27523;-72
2021/04/06 08:20:11;;;;;;;10.82;5.10;;;2.10;99.90;;;;;;490957;242;27516;-72
2021/04/06 08:22:13;;;;;;;10.68;4.07;;;1.90;99.90;;;;;;491024;242;27495;-71
2021/04/06 08:24:14;;;;;;;13.85;4.18;;;2.00;99.90;;;;;;490866;242;27508;-72
2021/04/06 08:26:15;;;;;;;7.45;4.05;;;2.10;99.90;;;;;;490482;242;27479;-71
2021/04/06 08:28:16;;;;;;;9.70;4.30;;;2.20;99.90;;;;;;490625;242;27476;-72
2021/04/06 08:30:27;;;;;;;6.60;3.78;;;2.40;99.90;;;;;;490975;242;27514;-73
2021/04/06 08:32:28;;;;;;;7.68;4.12;;;2.60;99.90;;;;;;491141;242;28032;-72
2021/04/06 08:34:29;;;;;;;13.43;4.80;;;2.50;99.90;;;;;;491210;242;27899;-72
2021/04/06 08:36:30;;;;;;;10.18;4.10;;;2.50;99.90;;;;;;491097;240;27510;-72
2021/04/06 08:38:32;;;;;;;9.98;4.32;;;2.50;99.90;;;;;;491071;242;27520;-72
2021/04/06 08:40:33;;;;;;;8.13;4.10;;;2.50;99.90;;;;;;491074;242;27510;-72
2021/04/06 08:42:34;;;;;;;6.78;3.95;;;2.40;99.90;;;;;;491098;242;27502;-72
2021/04/06 08:44:35;;;;;;;9.85;4.32;;;2.60;99.90;;;;;;491100;242;27452;-72
2021/04/06 08:46:37;;;;;;;10.82;3.83;;;2.50;99.90;;;;;;491058;242;27383;-72
2021/04/06 08:48:38;;;;;;;9.05;4.07;;;2.60;99.90;;;;;;491052;240;27483;-72
2021/04/06 08:50:39;;;;;;;7.25;3.83;;;2.70;99.90;;;;;;491070;240;27530;-73
2021/04/06 08:52:40;;;;;;;8.20;4.50;;;2.50;99.90;;;;;;491072;242;27491;-72
2021/04/06 08:54:42;;;;;;;8.65;4.07;;;2.70;99.90;;;;;;491085;242;28689;-72
2021/04/06 08:56:43;;;;;;;15.45;4.60;;;2.90;99.90;;;;;;491060;242;27948;-73
2021/04/06 08:58:44;;;;;;;12.05;4.15;;;2.90;99.90;;;;;;491035;242;28003;-72
2021/04/06 09:00:45;;;;;;;7.10;3.80;;;3.10;99.90;;;;;;491101;242;27547;-72
2021/04/06 09:02:47;;;;;;;12.40;4.07;;;3.20;99.90;;;;;;491077;242;27492;-73
2021/04/06 09:04:48;;;;;;;9.63;3.55;;;3.30;99.90;;;;;;490894;242;27571;-72
2021/04/06 09:06:49;;;;;;;7.65;3.22;;;3.00;99.90;;;;;;490985;242;27574;-71
2021/04/06 09:08:50;;;;;;;7.70;3.55;;;3.00;99.90;;;;;;491005;242;27492;-72
2021/04/06 09:10:52;;;;;;;8.77;4.25;;;3.00;99.90;;;;;;491136;242;27375;-72
2021/04/06 09:12:53;;;;;;;10.57;3.42;;;3.10;99.90;;;;;;491048;242;27514;-72
2021/04/06 09:14:54;;;;;;;7.40;3.37;;;3.10;99.90;;;;;;491076;242;27466;-72
2021/04/06 09:16:55;;;;;;;6.70;3.72;;;2.90;99.90;;;;;;491073;242;27928;-72
2021/04/06 09:18:57;;;;;;;9.93;3.35;;;3.20;99.90;;;;;;491079;242;28595;-72
2021/04/06 09:20:58;;;;;;;10.93;4.07;;;3.20;99.90;;;;;;491090;242;28687;-72
2021/04/06 09:22:59;;;;;;;7.40;3.30;;;3.30;99.90;;;;;;491097;242;27462;-72
2021/04/06 09:25:00;;;;;;;6.82;3.55;;;3.30;99.90;;;;;;491069;242;27604;-72
2021/04/06 09:27:02;;;;;;;7.85;2.92;;;3.30;99.90;;;;;;491049;242;27590;-72
2021/04/06 09:29:03;;;;;;;6.82;3.05;;;3.40;99.90;;;;;;491186;242;27491;-72
2021/04/06 09:31:04;;;;;;;6.07;2.70;;;3.60;99.90;;;;;;491125;242;27943;-72
2021/04/06 09:33:05;;;;;;;8.27;2.67;;;3.70;99.90;;;;;;491119;242;27428;-72
2021/04/06 09:35:07;;;;;;;8.38;2.95;;;3.50;99.90;;;;;;491056;242;27496;-72
2021/04/06 09:37:08;;;;;;;8.60;2.80;;;3.30;99.90;;;;;;491070;240;27934;-73
2021/04/06 09:39:09;;;;;;;8.00;2.80;;;3.60;99.90;;;;;;491057;242;27984;-72
2021/04/06 09:41:11;;;;;;;7.72;2.90;;;3.80;99.90;;;;;;491088;242;28013;-73
2021/04/06 09:43:12;;;;;;;6.60;2.70;;;3.70;99.90;;;;;;491070;242;27428;-72
2021/04/06 09:45:13;;;;;;;6.18;2.70;;;3.50;99.90;;;;;;491062;242;27615;-72
2021/04/06 09:47:14;;;;;;;11.35;3.30;;;3.10;99.90;;;;;;491081;242;27503;-72
2021/04/06 09:49:15;;;;;;;4.95;2.65;;;3.10;99.90;;;;;;491258;242;27352;-72
2021/04/06 09:51:17;;;;;;;6.93;2.97;;;3.20;99.90;;;;;;491050;242;27614;-73
2021/04/06 09:53:18;;;;;;;7.62;3.05;;;3.30;99.90;;;;;;491070;239;27441;-72
2021/04/06 09:55:19;;;;;;;12.50;3.25;;;3.50;99.90;;;;;;491229;242;27481;-72
2021/04/06 09:57:20;;;;;;;9.07;3.58;;;3.50;99.90;;;;;;491275;242;28223;-72
2021/04/06 09:59:22;;;;;;;9.73;3.12;;;3.50;99.90;;;;;;491226;241;27824;-71
2021/04/06 10:01:23;;;;;;;4.35;2.65;;;3.50;99.90;;;;;;491212;242;28066;-72
2021/04/06 10:03:25;;;;;;;6.20;2.90;;;3.50;99.90;;;;;;491244;242;27426;-72
2021/04/06 10:05:25;;;;;;;4.22;2.55;;;3.70;99.90;;;;;;491160;242;27499;-72
2021/04/06 10:07:27;;;;;;;5.25;2.62;;;3.90;99.90;;;;;;491036;242;27519;-72
2021/04/06 10:09:28;;;;;;;7.68;3.03;;;3.90;99.90;;;;;;491081;242;27488;-72
2021/04/06 10:11:29;;;;;;;8.02;3.12;;;3.90;99.90;;;;;;491114;242;27484;-72
2021/04/06 10:13:31;;;;;;;2.80;2.60;;;4.10;99.90;;;;;;491175;242;27437;-72
2021/04/06 10:15:32;;;;;;;7.85;2.58;;;4.40;99.90;;;;;;491348;241;27516;-73
2021/04/06 10:17:33;;;;;;;4.30;2.40;;;4.40;99.90;;;;;;491393;242;27520;-72
2021/04/06 10:19:34;;;;;;;5.45;2.55;;;4.40;99.90;;;;;;491407;242;27801;-72
2021/04/06 10:21:35;;;;;;;6.30;2.72;;;4.20;99.90;;;;;;491416;242;27896;-73
2021/04/06 10:23:37;;;;;;;4.15;2.40;;;4.10;99.90;;;;;;491408;242;27348;-73
2021/04/06 10:25:38;;;;;;;3.75;2.20;;;4.30;99.90;;;;;;491142;242;27556;-73
2021/04/06 10:27:39;;;;;;;6.53;2.40;;;4.00;99.90;;;;;;491043;242;27492;-72
2021/04/06 10:29:40;;;;;;;4.93;3.05;;;3.80;99.90;;;;;;491049;242;27488;-73